Time;durP1;ratioP1;P1;durP2;ratioP2;P2;SDS_P1;SDS_P2;PMS_P1;PMS_P2;Temp;Humidity;BMP_temperature;BMP_pressure;BME280_temperature;BME280_humidity;BME280_pressure;Samples;Min_cycle;Max_cycle;Signal;HPM_P1;HPM_P2
2022/09/15 00:01:14;;;;;;;0.30;0.30;;;;;;;19.32;84.41;99113.91;5091251;28;20203;-66
2022/09/15 00:03:41;;;;;;;0.30;0.30;;;;;;;19.31;84.31;99120.03;5088048;28;20204;-66
2022/09/15 00:06:10;;;;;;;0.40;0.40;;;;;;;19.35;83.31;99124.06;5091313;28;20686;-66
2022/09/15 00:08:37;;;;;;;0.40;0.40;;;;;;;19.38;83.17;99123.84;5091027;28;20686;-66
2022/09/15 00:11:07;;;;;;;0.40;0.40;;;;;;;19.36;82.93;99115.31;5085667;28;20219;-66
2022/09/15 00:13:35;;;;;;;0.40;0.40;;;;;;;19.37;82.44;99117.00;5090396;28;20223;-66
2022/09/15 00:16:02;;;;;;;0.30;0.30;;;;;;;19.39;82.07;99109.91;5090574;28;20204;-66
2022/09/15 00:18:29;;;;;;;0.40;0.40;;;;;;;19.42;81.70;99106.31;5090449;28;20253;-66
2022/09/15 00:20:56;;;;;;;0.30;0.30;;;;;;;19.40;81.61;99101.22;5086706;28;20632;-66
2022/09/15 00:23:25;;;;;;;0.20;0.20;;;;;;;19.42;81.19;99104.50;5091070;28;20263;-66
2022/09/15 00:25:53;;;;;;;0.40;0.40;;;;;;;19.40;81.06;99106.41;5090849;28;20720;-66
2022/09/15 00:28:21;;;;;;;0.40;0.40;;;;;;;19.35;80.87;99100.69;5089685;28;20588;-66
2022/09/15 00:30:51;;;;;;;0.30;0.30;;;;;;;19.33;80.67;99094.75;5090530;28;20218;-66
2022/09/15 00:33:19;;;;;;;0.40;0.40;;;;;;;19.26;81.12;99098.72;5089296;28;20281;-66
2022/09/15 00:35:48;;;;;;;0.40;0.40;;;;;;;19.30;80.89;99095.78;5089845;28;20677;-66
2022/09/15 00:38:15;;;;;;;0.50;0.50;;;;;;;19.32;80.48;99091.31;5090254;28;20204;-66
2022/09/15 00:40:48;;;;;;;0.30;0.30;;;;;;;19.23;80.83;99083.34;5089345;28;20253;-66
2022/09/15 00:43:17;;;;;;;0.33;0.33;;;;;;;18.99;82.15;99095.44;5088127;28;20208;-66
2022/09/15 00:45:44;;;;;;;0.30;0.30;;;;;;;19.01;82.33;99098.75;5090008;28;20637;-66
2022/09/15 00:48:15;;;;;;;0.40;0.40;;;;;;;19.04;82.75;99103.75;5090644;28;20282;-66
2022/09/15 00:50:46;;;;;;;0.50;0.50;;;;;;;19.04;82.72;99099.38;5090220;28;20199;-66
2022/09/15 00:53:15;;;;;;;0.30;0.30;;;;;;;19.01;83.19;99098.75;5090874;28;20203;-66
2022/09/15 00:55:46;;;;;;;0.50;0.50;;;;;;;19.02;83.70;99097.84;5090297;28;20191;-66
2022/09/15 00:58:18;;;;;;;0.30;0.30;;;;;;;19.00;83.72;99097.13;5090122;28;20206;-66
2022/09/15 01:00:49;;;;;;;0.40;0.40;;;;;;;19.06;83.63;99092.34;5090149;28;20208;-66
2022/09/15 01:03:16;;;;;;;0.40;0.40;;;;;;;19.08;83.44;99094.81;5089984;28;20250;-66
2022/09/15 01:05:52;;;;;;;0.40;0.40;;;;;;;19.09;83.70;99086.91;5090963;28;20241;-66
2022/09/15 01:08:24;;;;;;;0.30;0.30;;;;;;;19.10;83.90;99085.13;5090115;28;20203;-66
2022/09/15 01:10:51;;;;;;;0.50;0.50;;;;;;;19.09;84.03;99081.72;5090343;28;20289;-66
2022/09/15 01:13:20;;;;;;;0.47;0.47;;;;;;;19.09;84.19;99083.50;5089830;28;20231;-66
2022/09/15 01:15:59;;;;;;;0.40;0.40;;;;;;;19.07;83.89;99072.34;5090467;28;20620;-66
2022/09/15 01:18:32;;;;;;;0.30;0.30;;;;;;;19.00;84.67;99086.72;5090305;28;20199;-66
2022/09/15 01:21:33;;;;;;;0.30;0.30;;;;;;;18.98;84.97;99079.03;5089171;28;20207;-66
2022/09/15 01:24:41;;;;;;;0.30;0.30;;;;;;;18.97;85.25;99081.72;5087809;28;20303;-66
2022/09/15 01:27:21;;;;;;;0.40;0.40;;;;;;;18.95;85.61;99073.22;5088025;28;20200;-66
2022/09/15 01:30:05;;;;;;;0.40;0.40;;;;;;;18.93;85.96;99075.09;5085453;28;20207;-66
2022/09/15 01:35:33;;;;;;;0.37;0.37;;;;;;;18.88;86.25;99078.00;5089955;28;20332;-66
2022/09/15 01:38:06;;;;;;;0.40;0.40;;;;;;;18.87;86.08;99066.78;5089538;28;20199;-66
2022/09/15 01:40:37;;;;;;;0.50;0.50;;;;;;;18.81;85.62;99075.00;5090292;28;20544;-66
2022/09/15 01:43:06;;;;;;;0.40;0.40;;;;;;;18.68;86.00;99070.75;5087335;28;20828;-66
2022/09/15 01:45:37;;;;;;;0.30;0.30;;;;;;;18.58;85.91;99064.53;5090172;28;20225;-66
2022/09/15 01:48:06;;;;;;;0.40;0.40;;;;;;;18.60;86.23;99073.88;5089680;28;20682;-66
2022/09/15 01:50:37;;;;;;;0.40;0.40;;;;;;;18.64;86.45;99069.31;5090197;28;20200;-66
2022/09/15 01:53:11;;;;;;;0.40;0.40;;;;;;;18.63;86.73;99072.84;5092837;28;20652;-66
2022/09/15 01:55:41;;;;;;;0.40;0.40;;;;;;;18.62;86.55;99072.00;5093372;28;20264;-66
2022/09/15 01:58:08;;;;;;;0.30;0.30;;;;;;;18.64;86.55;99075.31;5093154;28;20571;-66
2022/09/15 02:00:41;;;;;;;0.30;0.30;;;;;;;18.55;85.87;99056.94;5093169;28;20737;-66
2022/09/15 02:03:16;;;;;;;0.50;0.50;;;;;;;18.61;85.82;99070.31;5089956;28;20257;-66
2022/09/15 02:05:47;;;;;;;0.50;0.50;;;;;;;18.56;85.96;99071.59;5093211;28;20228;-66
2022/09/15 02:08:23;;;;;;;0.30;0.30;;;;;;;18.59;85.56;99069.63;5093118;28;20298;-66
2022/09/15 02:11:00;;;;;;;0.40;0.40;;;;;;;18.40;86.04;99056.19;5093339;28;20229;-66
2022/09/15 02:13:38;;;;;;;0.40;0.40;;;;;;;18.44;86.90;99070.63;5092820;28;20223;-66
2022/09/15 02:16:18;;;;;;;0.37;0.37;;;;;;;18.35;87.20;99058.28;5093276;28;20199;-66
2022/09/15 02:18:56;;;;;;;0.30;0.30;;;;;;;18.46;87.14;99086.91;5092212;28;20278;-66
2022/09/15 02:21:28;;;;;;;0.30;0.30;;;;;;;18.45;87.49;99085.25;5093702;28;20203;-66
2022/09/15 02:24:02;;;;;;;0.30;0.30;;;;;;;18.37;87.21;99061.59;5088986;28;20200;-66
2022/09/15 02:26:32;;;;;;;0.50;0.50;;;;;;;18.46;87.23;99066.16;5090090;28;20203;-66
2022/09/15 02:29:03;;;;;;;0.40;0.40;;;;;;;18.51;86.82;99074.50;5092595;28;20207;-66
2022/09/15 02:31:34;;;;;;;0.30;0.30;;;;;;;18.55;86.41;99075.94;5092574;28;20203;-66
2022/09/15 02:34:12;;;;;;;0.30;0.30;;;;;;;18.58;86.58;99083.53;5092726;28;20608;-66
2022/09/15 02:36:41;;;;;;;0.30;0.30;;;;;;;18.42;87.24;99085.44;5092557;28;20191;-66
2022/09/15 02:39:12;;;;;;;0.40;0.40;;;;;;;18.25;87.37;99086.59;5087395;28;20210;-66
2022/09/15 02:41:40;;;;;;;0.40;0.40;;;;;;;18.21;87.93;99076.53;5092260;28;20187;-66
2022/09/15 02:44:08;;;;;;;0.40;0.40;;;;;;;18.22;87.77;99080.78;5092330;28;20203;-66
2022/09/15 02:46:38;;;;;;;0.50;0.50;;;;;;;18.20;87.63;99080.03;5092733;28;20264;-66
2022/09/15 02:49:04;;;;;;;0.30;0.30;;;;;;;18.02;88.38;99086.44;5091719;28;20246;-66
2022/09/15 02:51:31;;;;;;;0.40;0.40;;;;;;;17.91;88.84;99089.72;5092457;28;20211;-66
2022/09/15 02:53:58;;;;;;;0.30;0.30;;;;;;;17.88;88.99;99078.72;5092353;28;20214;-66
2022/09/15 02:56:25;;;;;;;0.40;0.40;;;;;;;17.93;88.85;99079.28;5092782;28;20203;-66
2022/09/15 02:58:52;;;;;;;0.50;0.50;;;;;;;17.94;88.87;99067.94;5091676;28;20672;-66
2022/09/15 03:01:19;;;;;;;0.50;0.50;;;;;;;17.99;88.69;99064.13;5092480;28;20200;-66
2022/09/15 03:03:47;;;;;;;0.47;0.47;;;;;;;18.05;89.11;99068.09;5091534;28;20199;-66
2022/09/15 03:06:18;;;;;;;0.40;0.40;;;;;;;18.01;88.92;99059.66;5092550;28;20218;-66
2022/09/15 03:08:48;;;;;;;0.50;0.50;;;;;;;18.11;89.00;99067.69;5092920;28;20286;-66
2022/09/15 03:11:15;;;;;;;0.40;0.40;;;;;;;18.11;88.62;99070.28;5092549;28;20195;-66
2022/09/15 03:13:42;;;;;;;0.40;0.40;;;;;;;18.14;88.37;99070.06;5092571;28;20284;-66
2022/09/15 03:16:11;;;;;;;0.40;0.40;;;;;;;18.13;88.45;99065.81;5092806;28;20191;-66
2022/09/15 03:18:38;;;;;;;0.40;0.40;;;;;;;18.18;88.18;99061.16;5093040;28;20652;-66
2022/09/15 03:21:11;;;;;;;0.30;0.30;;;;;;;18.18;88.76;99064.59;5089859;28;20199;-66
2022/09/15 03:23:37;;;;;;;0.50;0.50;;;;;;;18.17;88.52;99060.31;5092129;28;20685;-66
2022/09/15 03:26:05;;;;;;;0.30;0.30;;;;;;;18.18;88.54;99066.34;5090050;28;20195;-66
2022/09/15 03:28:32;;;;;;;0.50;0.50;;;;;;;18.17;88.16;99062.09;5092584;28;20195;-66
2022/09/15 03:30:59;;;;;;;0.50;0.50;;;;;;;18.15;88.64;99082.13;5092174;28;20203;-66
2022/09/15 03:33:25;;;;;;;0.40;0.40;;;;;;;18.16;88.19;99084.59;5092122;28;20219;-66
2022/09/15 03:35:53;;;;;;;0.50;0.50;;;;;;;18.16;88.51;99081.16;5092349;28;20206;-66
2022/09/15 03:38:22;;;;;;;0.40;0.40;;;;;;;17.99;89.88;99078.88;5091889;28;20202;-66
2022/09/15 03:41:00;;;;;;;0.40;0.40;;;;;;;17.87;90.85;99082.28;5092142;28;20203;-66
2022/09/15 03:43:27;;;;;;;0.33;0.33;;;;;;;17.86;90.99;99073.66;5091863;28;20187;-66
2022/09/15 03:45:54;;;;;;;0.30;0.30;;;;;;;17.92;90.87;99080.19;5092333;28;20203;-66
2022/09/15 03:48:21;;;;;;;0.30;0.30;;;;;;;17.91;91.52;99081.94;5092295;28;20643;-66
2022/09/15 03:50:48;;;;;;;0.40;0.40;;;;;;;17.74;91.77;99083.03;5088226;28;20289;-66
2022/09/15 03:53:16;;;;;;;0.30;0.30;;;;;;;17.67;91.61;99081.75;5091748;28;20247;-66
2022/09/15 03:55:45;;;;;;;0.40;0.40;;;;;;;17.59;91.83;99078.84;5092005;28;20223;-66
2022/09/15 03:58:12;;;;;;;0.40;0.40;;;;;;;17.57;92.12;99074.69;5092100;28;20191;-66
2022/09/15 04:00:40;;;;;;;0.40;0.40;;;;;;;17.61;92.10;99074.38;5091695;28;20252;-66
2022/09/15 04:03:07;;;;;;;0.40;0.40;;;;;;;17.52;92.00;99059.38;5091616;28;20294;-66
2022/09/15 04:05:35;;;;;;;0.40;0.40;;;;;;;17.58;92.14;99077.16;5091735;28;20187;-66
2022/09/15 04:08:03;;;;;;;0.40;0.40;;;;;;;17.56;92.51;99078.19;5091677;28;20214;-66
2022/09/15 04:10:30;;;;;;;0.40;0.40;;;;;;;17.54;92.09;99080.88;5091593;28;20195;-66
2022/09/15 04:12:58;;;;;;;0.30;0.30;;;;;;;17.39;92.70;99084.41;5091672;28;20223;-66
2022/09/15 04:15:25;;;;;;;0.40;0.40;;;;;;;17.33;92.93;99089.97;5091274;28;20199;-66
2022/09/15 04:17:52;;;;;;;0.40;0.40;;;;;;;17.37;93.16;99082.84;5091526;28;20199;-66
2022/09/15 04:20:19;;;;;;;0.30;0.30;;;;;;;17.43;93.03;99088.50;5091047;28;20232;-66
2022/09/15 04:22:45;;;;;;;0.40;0.40;;;;;;;17.48;93.03;99091.59;5090476;28;20281;-66
2022/09/15 04:25:12;;;;;;;0.40;0.40;;;;;;;17.33;93.54;99087.41;5091590;28;20196;-66
2022/09/15 04:27:39;;;;;;;0.40;0.40;;;;;;;17.11;94.57;99066.34;5091364;28;20241;-66
2022/09/15 04:30:09;;;;;;;0.40;0.40;;;;;;;17.25;94.50;99089.66;5091354;28;20244;-66
2022/09/15 04:32:36;;;;;;;0.50;0.50;;;;;;;17.28;94.53;99090.28;5090960;28;20282;-66
2022/09/15 04:35:04;;;;;;;0.40;0.40;;;;;;;17.28;94.88;99094.63;5091574;28;20218;-66
2022/09/15 04:37:31;;;;;;;0.40;0.40;;;;;;;17.33;94.96;99097.75;5091104;28;20249;-66
2022/09/15 04:39:58;;;;;;;0.50;0.50;;;;;;;17.37;94.84;99101.84;5090162;28;20199;-66
2022/09/15 04:42:25;;;;;;;0.43;0.43;;;;;;;17.43;94.64;99114.41;5091153;28;20202;-66
2022/09/15 04:44:51;;;;;;;0.50;0.50;;;;;;;17.47;94.54;99112.44;5090914;28;20199;-66
2022/09/15 04:47:20;;;;;;;0.30;0.30;;;;;;;17.42;94.17;99096.34;5090813;28;20202;-66
2022/09/15 04:49:46;;;;;;;0.40;0.40;;;;;;;17.67;94.28;99118.06;5091005;28;20192;-66
2022/09/15 04:52:13;;;;;;;0.40;0.40;;;;;;;17.80;93.78;99113.75;5087290;28;20753;-66
2022/09/15 04:54:40;;;;;;;0.50;0.50;;;;;;;17.92;92.94;99111.31;5090998;28;20244;-66
2022/09/15 04:57:08;;;;;;;0.30;0.30;;;;;;;18.04;92.23;99110.50;5091196;28;20195;-66
2022/09/15 04:59:35;;;;;;;0.47;0.47;;;;;;;18.12;91.23;99118.63;5091278;28;20195;-66
2022/09/15 05:02:02;;;;;;;0.40;0.40;;;;;;;18.25;91.09;99115.16;5090932;28;20203;-66
2022/09/15 05:04:30;;;;;;;0.33;0.33;;;;;;;18.43;91.00;99118.28;5090571;28;20202;-66
2022/09/15 05:06:57;;;;;;;0.40;0.40;;;;;;;18.58;90.96;99114.69;5090885;28;20679;-66
2022/09/15 05:09:25;;;;;;;0.37;0.37;;;;;;;18.77;89.89;99112.50;5091098;28;20666;-66
2022/09/15 05:11:52;;;;;;;0.40;0.40;;;;;;;18.97;88.93;99118.09;5090780;28;20235;-66
2022/09/15 05:14:18;;;;;;;0.30;0.30;;;;;;;19.13;89.52;99116.94;5090862;28;20264;-66
2022/09/15 05:16:45;;;;;;;0.40;0.40;;;;;;;19.34;89.75;99125.00;5089718;28;20204;-66
2022/09/15 05:19:12;;;;;;;0.40;0.40;;;;;;;19.52;89.15;99131.53;5090054;28;20207;-66
2022/09/15 05:21:40;;;;;;;0.40;0.40;;;;;;;19.73;88.17;99140.41;5091031;28;20725;-66
2022/09/15 05:24:07;;;;;;;0.37;0.37;;;;;;;19.91;86.75;99133.88;5090749;28;20201;-66
2022/09/15 05:26:34;;;;;;;0.30;0.30;;;;;;;20.11;86.00;99123.78;5091012;28;20246;-66
2022/09/15 05:29:01;;;;;;;0.20;0.20;;;;;;;20.33;86.58;99121.28;5094583;28;20194;-66
2022/09/15 05:31:30;;;;;;;0.40;0.40;;;;;;;20.52;84.69;99118.97;5094853;28;20192;-66
2022/09/15 05:33:57;;;;;;;0.30;0.30;;;;;;;20.75;84.51;99120.66;5093724;28;20208;-66
2022/09/15 05:36:25;;;;;;;0.77;0.77;;;;;;;20.94;83.07;99110.50;5094910;28;20196;-66
2022/09/15 05:38:55;;;;;;;0.40;0.40;;;;;;;21.18;81.66;99106.97;5093182;28;20256;-66
2022/09/15 05:41:22;;;;;;;0.40;0.40;;;;;;;21.36;81.00;99108.13;5095010;28;20683;-66
2022/09/15 05:43:50;;;;;;;0.33;0.33;;;;;;;21.63;80.07;99113.75;5094295;28;20210;-66
2022/09/15 05:46:19;;;;;;;0.30;0.30;;;;;;;21.83;79.93;99113.00;5094542;28;20730;-66
2022/09/15 05:48:46;;;;;;;0.30;0.30;;;;;;;22.03;79.16;99110.59;5094440;28;20202;-66
2022/09/15 05:51:13;;;;;;;0.20;0.20;;;;;;;22.02;77.54;99088.03;5094125;28;20285;-66
2022/09/15 05:53:40;;;;;;;0.20;0.20;;;;;;;22.27;77.02;99111.16;5094445;28;20302;-66
2022/09/15 05:56:11;;;;;;;0.30;0.30;;;;;;;22.36;75.80;99113.84;5094214;28;20203;-66
2022/09/15 05:58:39;;;;;;;0.23;0.23;;;;;;;22.45;74.86;99107.03;5094470;28;20718;-66
2022/09/15 06:01:07;;;;;;;0.20;0.20;;;;;;;22.53;72.52;99109.81;5094054;28;20258;-66
2022/09/15 06:03:35;;;;;;;0.20;0.20;;;;;;;22.65;71.73;99121.06;5094449;28;20567;-66
2022/09/15 06:06:03;;;;;;;0.20;0.20;;;;;;;22.68;71.20;99113.00;5093422;28;20286;-66
2022/09/15 06:08:32;;;;;;;0.40;0.40;;;;;;;22.65;71.22;99103.56;5093789;28;20199;-66
2022/09/15 06:11:03;;;;;;;0.30;0.30;;;;;;;22.83;71.12;99112.50;5093784;28;20199;-68
2022/09/15 06:13:32;;;;;;;0.20;0.20;;;;;;;23.09;71.26;99117.28;5089967;28;20463;-70
2022/09/15 06:16:04;;;;;;;0.30;0.30;;;;;;;23.34;67.94;99111.59;5092620;28;20207;-70
2022/09/15 06:18:30;;;;;;;0.20;0.20;;;;;;;23.46;67.70;99100.09;5091290;28;20241;-70
2022/09/15 06:20:57;;;;;;;0.30;0.30;;;;;;;23.62;67.28;99100.38;5092502;28;20303;-70
2022/09/15 06:23:24;;;;;;;0.30;0.30;;;;;;;23.80;65.23;99093.53;5091660;28;20240;-69
2022/09/15 06:25:51;;;;;;;0.20;0.20;;;;;;;23.87;66.52;99099.88;5092400;28;20215;-71
2022/09/15 06:28:18;;;;;;;0.20;0.20;;;;;;;24.04;65.15;99096.56;5092209;28;20203;-71
2022/09/15 06:30:48;;;;;;;0.20;0.20;;;;;;;24.10;65.08;99086.50;5092072;28;20634;-70
2022/09/15 06:33:15;;;;;;;0.20;0.20;;;;;;;24.26;65.71;99086.78;5092102;28;20226;-71
2022/09/15 06:35:42;;;;;;;0.27;0.27;;;;;;;24.35;64.83;99084.16;5092580;28;20200;-70
2022/09/15 06:38:09;;;;;;;0.20;0.20;;;;;;;24.51;62.80;99083.56;5090789;28;20210;-72
2022/09/15 06:40:36;;;;;;;0.30;0.30;;;;;;;24.65;63.55;99085.75;5088965;28;20547;-70
2022/09/15 06:43:04;;;;;;;0.30;0.30;;;;;;;24.80;62.13;99092.19;5092081;28;20265;-70
2022/09/15 06:45:30;;;;;;;0.33;0.33;;;;;;;24.97;61.18;99091.47;5090982;28;20211;-70
2022/09/15 06:47:58;;;;;;;0.20;0.20;;;;;;;25.01;63.13;99087.56;5087471;28;20625;-72
2022/09/15 06:50:25;;;;;;;0.20;0.20;;;;;;;25.11;63.11;99063.91;5089345;28;20211;-67
2022/09/15 06:52:52;;;;;;;0.20;0.20;;;;;;;25.33;60.49;99066.13;5091023;28;20207;-67
2022/09/15 06:55:19;;;;;;;0.20;0.20;;;;;;;25.55;60.18;99081.50;5088422;28;20218;-67
2022/09/15 06:57:46;;;;;;;0.20;0.20;;;;;;;25.71;60.64;99086.09;5090624;28;20199;-67
2022/09/15 07:00:13;;;;;;;0.20;0.20;;;;;;;25.91;57.62;99077.06;5089630;28;20215;-69
2022/09/15 07:02:40;;;;;;;0.17;0.17;;;;;;;26.04;58.09;99081.97;5089998;28;20271;-70
2022/09/15 07:05:09;;;;;;;0.20;0.20;;;;;;;26.25;57.83;99076.38;5088648;28;20200;-70
2022/09/15 07:07:36;;;;;;;0.20;0.20;;;;;;;26.40;58.37;99080.91;5091970;28;20627;-70
2022/09/15 07:10:04;;;;;;;0.20;0.20;;;;;;;26.61;55.33;99085.84;5089707;28;20245;-70
2022/09/15 07:12:31;;;;;;;0.20;0.20;;;;;;;26.82;54.47;99083.66;5090380;28;20231;-70
2022/09/15 07:14:58;;;;;;;0.20;0.20;;;;;;;26.96;53.20;99088.34;5091251;28;20770;-71
2022/09/15 07:17:26;;;;;;;0.10;0.10;;;;;;;27.08;52.72;99084.44;5091953;28;20652;-72
2022/09/15 07:19:52;;;;;;;0.10;0.10;;;;;;;27.25;52.34;99079.25;5091813;28;20659;-71
2022/09/15 07:22:21;;;;;;;0.20;0.20;;;;;;;27.38;51.23;99075.19;5090860;28;20207;-69
2022/09/15 07:24:47;;;;;;;0.20;0.20;;;;;;;27.23;52.61;99068.06;5086899;28;20207;-71
2022/09/15 07:27:14;;;;;;;0.20;0.20;;;;;;;27.36;52.06;99064.00;5083851;28;20725;-72
2022/09/15 07:29:41;;;;;;;0.10;0.10;;;;;;;27.49;53.56;99066.19;5085709;28;20228;-70
2022/09/15 07:32:08;;;;;;;0.10;0.10;;;;;;;27.61;51.71;99072.78;5088649;28;20207;-69
2022/09/15 07:34:35;;;;;;;0.10;0.10;;;;;;;27.69;50.17;99072.00;5089730;28;20227;-70
2022/09/15 07:37:01;;;;;;;0.10;0.10;;;;;;;27.83;49.07;99085.34;5089241;28;20771;-70
2022/09/15 07:39:31;;;;;;;0.20;0.20;;;;;;;27.91;49.29;99090.63;5090751;28;20200;-69
2022/09/15 07:41:58;;;;;;;0.10;0.10;;;;;;;28.03;50.56;99094.56;5088121;28;20199;-70
2022/09/15 07:44:25;;;;;;;0.10;0.10;;;;;;;28.15;49.62;99095.91;5089351;28;20595;-71
2022/09/15 07:46:52;;;;;;;0.20;0.20;;;;;;;28.24;47.73;99082.75;5090428;28;20736;-70
2022/09/15 07:49:18;;;;;;;0.10;0.10;;;;;;;28.38;49.92;99082.88;5089193;28;20256;-70
2022/09/15 07:51:45;;;;;;;0.20;0.20;;;;;;;28.53;49.42;99088.31;5091111;28;20285;-70
2022/09/15 07:54:12;;;;;;;0.57;0.57;;;;;;;28.69;51.19;99083.03;5088032;28;20276;-70
2022/09/15 07:56:40;;;;;;;0.10;0.10;;;;;;;28.89;50.00;99073.72;5087009;28;20208;-70
2022/09/15 07:59:07;;;;;;;0.17;0.17;;;;;;;28.94;48.70;99076.69;5087815;28;20265;-70
2022/09/15 08:01:34;;;;;;;0.10;0.10;;;;;;;29.12;48.50;99077.25;5089551;28;20257;-70
2022/09/15 08:04:01;;;;;;;0.13;0.13;;;;;;;29.33;47.22;99078.53;5087758;28;20200;-69
2022/09/15 08:06:29;;;;;;;0.20;0.20;;;;;;;29.24;45.61;99058.41;5089344;28;20282;-70
2022/09/15 08:08:56;;;;;;;0.10;0.10;;;;;;;29.49;44.40;99075.78;5088639;28;20199;-70
2022/09/15 08:11:23;;;;;;;0.10;0.10;;;;;;;29.44;46.22;99055.16;5088780;28;20675;-70
2022/09/15 08:13:52;;;;;;;0.10;0.10;;;;;;;29.65;45.53;99075.69;5087291;28;20679;-68
2022/09/15 08:16:21;;;;;;;0.20;0.20;;;;;;;29.78;44.07;99081.22;5088885;28;20705;-72
2022/09/15 08:18:48;;;;;;;0.10;0.10;;;;;;;29.71;42.83;99080.25;5091388;28;20660;-73
2022/09/15 08:21:17;;;;;;;0.20;0.20;;;;;;;29.78;44.69;99072.47;5090361;28;20678;-73
2022/09/15 08:23:44;;;;;;;0.10;0.10;;;;;;;29.91;44.29;99078.00;5090254;28;20196;-73
2022/09/15 08:26:12;;;;;;;0.10;0.10;;;;;;;30.11;44.45;99076.53;5089336;28;20256;-73
2022/09/15 08:28:39;;;;;;;0.20;0.20;;;;;;;30.15;43.69;99083.91;5088052;28;20742;-72
2022/09/15 08:31:10;;;;;;;0.20;0.20;;;;;;;30.35;43.33;99083.41;5090606;28;20675;-72
2022/09/15 08:33:37;;;;;;;0.17;0.17;;;;;;;30.29;42.79;99065.63;5090279;28;20302;-71
2022/09/15 08:36:05;;;;;;;0.20;0.20;;;;;;;30.42;41.55;99071.13;5091186;28;20195;-71
2022/09/15 08:38:33;;;;;;;0.10;0.10;;;;;;;30.49;45.57;99075.53;5091160;28;20207;-72
2022/09/15 08:41:03;;;;;;;0.13;0.13;;;;;;;30.69;42.72;99067.88;5088508;28;20195;-73
2022/09/15 08:43:39;;;;;;;0.10;0.10;;;;;;;30.84;41.93;99067.88;5090881;28;20283;-72
2022/09/15 08:46:13;;;;;;;0.10;0.10;;;;;;;30.96;43.64;99074.38;5087072;28;20583;-71
2022/09/15 08:48:44;;;;;;;0.10;0.10;;;;;;;31.07;41.67;99077.38;5087389;28;20211;-70
2022/09/15 08:51:15;;;;;;;0.10;0.10;;;;;;;31.06;42.33;99051.91;5090800;28;20231;-72
2022/09/15 08:53:47;;;;;;;0.13;0.13;;;;;;;31.28;43.68;99065.22;5090577;28;20798;-72
2022/09/15 08:56:17;;;;;;;0.10;0.10;;;;;;;31.41;44.65;99068.00;5092816;28;20200;-72
2022/09/15 08:58:46;;;;;;;0.10;0.10;;;;;;;31.42;42.87;99072.28;5091861;28;20199;-72
2022/09/15 09:01:25;;;;;;;0.10;0.10;;;;;;;31.53;40.28;99069.19;5090558;28;20201;-73
2022/09/15 09:04:09;;;;;;;0.10;0.10;;;;;;;31.67;41.88;99063.00;5092745;28;20274;-72
2022/09/15 09:06:43;;;;;;;0.10;0.10;;;;;;;31.68;40.91;99064.66;5086562;28;20207;-72
2022/09/15 09:09:23;;;;;;;0.10;0.10;;;;;;;31.73;40.00;99065.72;5093624;28;20305;-71
2022/09/15 09:12:11;;;;;;;0.10;0.10;;;;;;;31.74;42.17;99055.94;5092034;28;20693;-71
2022/09/15 09:14:51;;;;;;;0.10;0.10;;;;;;;31.78;43.93;99056.38;5090797;28;20222;-72
2022/09/15 09:17:41;;;;;;;0.10;0.10;;;;;;;31.73;38.45;99039.22;5092385;28;20203;-72
2022/09/15 09:20:26;;;;;;;0.10;0.10;;;;;;;31.82;41.58;99041.75;5087774;28;20207;-71
2022/09/15 09:22:54;;;;;;;0.10;0.10;;;;;;;32.02;38.49;99038.22;5092173;28;20682;-72
2022/09/15 09:25:22;;;;;;;0.10;0.10;;;;;;;32.09;40.77;99038.31;5089238;28;20348;-72
2022/09/15 09:27:49;;;;;;;0.10;0.10;;;;;;;32.14;40.26;99041.22;5088921;28;20211;-71
2022/09/15 09:30:18;;;;;;;0.10;0.10;;;;;;;32.18;38.76;99037.19;5083335;28;20586;-69
2022/09/15 09:32:54;;;;;;;0.10;0.10;;;;;;;32.28;38.33;99026.22;5090185;28;20203;-68
2022/09/15 09:35:29;;;;;;;0.10;0.10;;;;;;;32.36;38.02;99028.72;5090340;28;20234;-70
2022/09/15 09:37:56;;;;;;;0.10;0.10;;;;;;;32.32;40.16;99022.16;5091545;28;20214;-67
2022/09/15 09:40:23;;;;;;;0.10;0.10;;;;;;;32.14;39.91;99020.84;5091487;28;20235;-72
2022/09/15 09:42:50;;;;;;;0.10;0.10;;;;;;;32.05;41.28;99016.66;5092006;28;20203;-73
2022/09/15 09:45:19;;;;;;;0.20;0.20;;;;;;;32.02;40.04;99013.56;5089682;28;20191;-72
2022/09/15 09:47:47;;;;;;;0.10;0.10;;;;;;;32.02;41.82;99010.91;5090978;28;20257;-72
2022/09/15 09:50:34;;;;;;;0.10;0.10;;;;;;;32.08;39.47;99015.47;5086819;28;20671;-73
2022/09/15 09:53:19;;;;;;;0.20;0.20;;;;;;;32.21;40.27;99004.97;5093447;28;20215;-72
2022/09/15 09:55:46;;;;;;;0.17;0.17;;;;;;;32.25;40.79;99001.72;5092594;28;20215;-73
2022/09/15 09:58:18;;;;;;;0.30;0.30;;;;;;;32.24;41.70;98976.22;5092563;28;20703;-73
2022/09/15 10:00:46;;;;;;;0.10;0.10;;;;;;;32.30;40.78;98992.34;5090340;28;20756;-72
2022/09/15 10:03:18;;;;;;;0.10;0.10;;;;;;;32.17;41.09;98988.63;5091285;28;20575;-73
2022/09/15 10:05:59;;;;;;;0.10;0.10;;;;;;;32.39;39.59;98977.91;5088049;28;20234;-73
2022/09/15 10:08:26;;;;;;;0.10;0.10;;;;;;;32.50;39.64;98988.00;5091221;28;20199;-72
2022/09/15 10:10:55;;;;;;;0.10;0.10;;;;;;;32.47;37.57;98983.06;5084949;28;20195;-74
2022/09/15 10:13:23;;;;;;;0.10;0.10;;;;;;;32.57;37.39;98980.91;5091526;28;20263;-73
2022/09/15 10:15:54;;;;;;;0.10;0.10;;;;;;;32.58;36.43;98979.88;5093629;28;20219;-72
2022/09/15 10:18:33;;;;;;;0.10;0.10;;;;;;;32.75;39.49;98963.44;5094421;28;20211;-73
2022/09/15 10:21:03;;;;;;;0.10;0.10;;;;;;;32.80;37.51;98962.81;5094789;28;20206;-73
2022/09/15 10:23:32;;;;;;;0.10;0.10;;;;;;;32.87;37.59;98963.66;5093990;28;20591;-72
2022/09/15 10:26:20;;;;;;;1.00;1.00;;;;;;;33.00;40.91;98973.50;5091680;28;20226;-73
2022/09/15 10:29:11;;;;;;;0.10;0.10;;;;;;;33.11;39.11;98971.16;5093949;28;20222;-72
2022/09/15 10:31:39;;;;;;;0.15;0.15;;;;;;;33.07;37.00;98964.56;5093058;28;20202;-73
2022/09/15 10:34:26;;;;;;;0.10;0.10;;;;;;;33.11;36.85;98959.69;5092320;28;20219;-72
2022/09/15 10:36:55;;;;;;;0.10;0.10;;;;;;;33.11;36.96;98963.19;5092563;28;20566;-74
2022/09/15 10:39:31;;;;;;;0.10;0.10;;;;;;;32.95;37.41;98963.50;5091543;28;20204;-73
2022/09/15 10:42:09;;;;;;;0.10;0.10;;;;;;;33.07;39.40;98959.25;5092089;28;20633;-74
2022/09/15 10:44:42;;;;;;;0.10;0.10;;;;;;;33.18;37.45;98958.66;5092202;28;20218;-74
2022/09/15 10:47:21;;;;;;;0.10;0.10;;;;;;;33.34;36.76;98954.84;5092201;28;20207;-73
2022/09/15 10:50:06;;;;;;;0.10;0.10;;;;;;;33.43;36.44;98939.50;5091017;28;20198;-73
2022/09/15 10:52:49;;;;;;;0.10;0.10;;;;;;;33.45;36.80;98945.44;5085445;28;20315;-73
2022/09/15 10:55:39;;;;;;;0.10;0.10;;;;;;;33.56;37.56;98947.50;5083938;28;20660;-73
2022/09/15 10:58:23;;;;;;;0.10;0.10;;;;;;;33.65;37.53;98938.31;5082591;28;20211;-74
2022/09/15 11:00:59;;;;;;;0.10;0.10;;;;;;;33.66;36.17;98931.97;5088527;28;20294;-74
2022/09/15 11:03:42;;;;;;;0.10;0.10;;;;;;;33.68;37.96;98932.59;5086844;28;20235;-73
2022/09/15 11:06:20;;;;;;;0.10;0.10;;;;;;;33.75;36.36;98926.25;5082828;28;20701;-73
2022/09/15 11:09:02;;;;;;;0.20;0.20;;;;;;;33.68;34.68;98927.25;5081160;28;20199;-71
2022/09/15 11:11:40;;;;;;;0.40;0.40;;;;;;;33.52;36.02;98917.00;5084066;28;20203;-74
2022/09/15 11:14:21;;;;;;;0.10;0.10;;;;;;;33.52;34.16;98917.00;5087142;28;20207;-74
2022/09/15 11:17:00;;;;;;;0.10;0.10;;;;;;;33.63;36.62;98919.09;5085152;28;20204;-73
2022/09/15 11:19:43;;;;;;;0.10;0.10;;;;;;;33.72;34.85;98908.06;5082604;28;20207;-73
2022/09/15 11:22:16;;;;;;;0.10;0.10;;;;;;;33.84;34.90;98902.91;5078707;28;20891;-73
2022/09/15 11:24:48;;;;;;;0.10;0.10;;;;;;;33.91;33.66;98905.56;5086226;28;20199;-74
2022/09/15 11:27:21;;;;;;;0.10;0.10;;;;;;;33.99;33.87;98900.03;5084953;28;20570;-73
2022/09/15 11:30:04;;;;;;;0.10;0.10;;;;;;;34.05;34.68;98905.34;5083517;28;20208;-73
2022/09/15 11:32:38;;;;;;;0.10;0.10;;;;;;;34.10;35.97;98902.03;5078544;28;20199;-73
2022/09/15 11:35:28;;;;;;;0.10;0.10;;;;;;;34.05;34.58;98901.84;5079598;28;20218;-72
2022/09/15 11:38:02;;;;;;;0.10;0.10;;;;;;;34.12;35.98;98889.38;5079640;28;20200;-72
2022/09/15 11:40:36;;;;;;;0.10;0.10;;;;;;;34.22;33.54;98890.56;5083137;28;20219;-74
2022/09/15 11:43:10;;;;;;;0.10;0.10;;;;;;;34.12;33.78;98886.72;5083586;28;20700;-73
2022/09/15 11:45:43;;;;;;;0.10;0.10;;;;;;;34.23;34.92;98886.88;5080106;28;20971;-73
2022/09/15 11:48:16;;;;;;;0.10;0.10;;;;;;;34.31;33.71;98887.69;5081743;28;20212;-72
2022/09/15 11:50:47;;;;;;;0.10;0.10;;;;;;;34.28;34.51;98895.03;5089055;28;20211;-73
2022/09/15 11:53:22;;;;;;;0.10;0.10;;;;;;;34.34;34.57;98882.75;5088628;28;20203;-73